#dbistima — V2PX5 — position and weather

sailwx.info

Track history (hours):
 
Tides and Currents Weather Stations Pressure Air Temp Water Temp Dewpoint Dewpoint Depression Visibility Wind Speed Wind Dir Waves Ship Positions

#dbistima

Last reported at 2017-Dec-15 02:31 UTC. Time now 2017-Dec-15 11:58 UTC.
Position N 53°29' E 005°04'.

MMSI: 304010972.

Date/timePositionNaut miles runAvg speedWind from/ knotsBaromVisibWave heightAir tempDewpointWater temp
2017-Dec-15 02:31N 53°29' E 005°04'15310.3
2017-Dec-14 11:40N 51°32' E 002°21'412.0
2017-Dec-14 11:18N 51°29' E 002°16'311.6
2017-Dec-14 11:01N 51°26' E 002°14'612.0
2017-Dec-14 10:30N 51°20' E 002°09'611.9
2017-Dec-14 10:01N 51°15' E 002°05'611.9
2017-Dec-14 09:30N 51°11' E 001°58'612.1
2017-Dec-14 09:00N 51°07' E 001°50'4 9.0
2017-Dec-14 08:30N 51°04' E 001°46'3 5.9
2017-Dec-14 08:00N 51°03' E 001°50'3 5.6
2017-Dec-14 07:30N 51°02' E 001°55'3 6.2
2017-Dec-14 07:00N 51°03' E 001°60'4 7.3
2017-Dec-14 06:30N 51°03' E 002°05'4 7.8
2017-Dec-14 06:00N 51°03' E 002°12'4 8.4
2017-Dec-14 05:28N 51°04' E 002°19'1 2.7
2017-Dec-14 05:00N 51°03' E 002°20'1 1.1
2017-Dec-14 04:30N 51°03' E 002°20'2 2.8
2017-Dec-14 03:57N 51°03' E 002°17'0 0.0
2017-Dec-14 02:22N 51°03' E 002°17'0 0.0
2017-Dec-14 01:52N 51°03' E 002°17'0 0.0
2017-Dec-14 01:22N 51°03' E 002°17'0 0.0
2017-Dec-14 00:16N 51°03' E 002°17'0 0.0
2017-Dec-13 23:58N 51°03' E 002°17'0 0.0
2017-Dec-13 22:52N 51°03' E 002°17'0 0.0
2017-Dec-13 22:28N 51°03' E 002°17'0 0.0
2017-Dec-13 21:55N 51°03' E 002°17'0 0.0
2017-Dec-13 20:58N 51°03' E 002°17'0 0.0
2017-Dec-13 20:28N 51°03' E 002°17'0 0.0
2017-Dec-13 19:40N 51°03' E 002°17'0 0.0
2017-Dec-13 18:40N 51°03' E 002°17'0 0.0
2017-Dec-13 18:28N 51°03' E 002°17'0 0.0
2017-Dec-13 17:52N 51°03' E 002°17'0 0.0
2017-Dec-13 17:28N 51°03' E 002°17'0 0.0
2017-Dec-13 16:58N 51°03' E 002°17'0 0.0
2017-Dec-13 16:28N 51°03' E 002°17'0 0.0
2017-Dec-13 15:55N 51°03' E 002°17'0 0.0
2017-Dec-13 14:58N 51°03' E 002°17'0 0.0
2017-Dec-13 14:01N 51°03' E 002°17'0 0.0
2017-Dec-13 13:43N 51°03' E 002°17'0 0.0
2017-Dec-13 13:22N 51°03' E 002°17'0 0.0
2017-Dec-13 12:40N 51°03' E 002°17'0 0.0
2017-Dec-13 12:25N 51°03' E 002°17'0 0.0
2017-Dec-13 11:52N 51°03' E 002°17'0 0.0
2017-Dec-13 11:04N 51°03' E 002°17'0 0.0
2017-Dec-13 10:58N 51°03' E 002°17'0 0.0
2017-Dec-13 10:22N 51°03' E 002°17'0 0.0
2017-Dec-13 09:43N 51°03' E 002°17'0 0.0
2017-Dec-13 09:29N 51°03' E 002°17'0 0.0
2017-Dec-13 08:58N 51°03' E 002°17'0 0.0
2017-Dec-13 08:30N 51°03' E 002°17'0 0.0
2017-Dec-13 07:59N 51°03' E 002°17'0 0.0
2017-Dec-13 07:30N 51°03' E 002°17'0 0.0
2017-Dec-13 06:50N 51°03' E 002°17'0 0.0
2017-Dec-13 06:29N 51°03' E 002°17'0 0.0
2017-Dec-13 05:57N 51°03' E 002°17'0 0.0
2017-Dec-13 04:50N 51°03' E 002°17'0 0.0
2017-Dec-13 04:08N 51°03' E 002°17'0 0.0
2017-Dec-13 03:54N 51°03' E 002°17'0 0.0
2017-Dec-13 03:30N 51°03' E 002°17'0 0.0
2017-Dec-13 02:59N 51°03' E 002°17'0 0.0
2017-Dec-13 02:28N 51°03' E 002°17'0 0.0
2017-Dec-13 01:59N 51°03' E 002°17'0 0.0
2017-Dec-13 01:26N 51°03' E 002°17'0 0.0
2017-Dec-13 00:59N 51°03' E 002°17'0 0.0
2017-Dec-13 00:30N 51°03' E 002°17'0 0.0
2017-Dec-12 23:59N 51°03' E 002°17'0 0.0
2017-Dec-12 23:26N 51°03' E 002°17'0 0.0
2017-Dec-12 23:00N 51°03' E 002°17'0 0.0
2017-Dec-12 22:20N 51°03' E 002°17'0 0.0
2017-Dec-12 21:47N 51°03' E 002°17'0 0.0
2017-Dec-12 21:27N 51°03' E 002°17'0 0.0
2017-Dec-12 21:00N 51°03' E 002°17'0 0.0
2017-Dec-12 20:25N 51°03' E 002°17'0 0.0
2017-Dec-12 19:51N 51°03' E 002°17'0 0.0
2017-Dec-12 19:24N 51°03' E 002°17'0 0.0
2017-Dec-12 18:55N 51°03' E 002°17'0 0.0
2017-Dec-12 18:30N 51°03' E 002°17'0 0.0
2017-Dec-12 17:51N 51°03' E 002°17'0 0.0
2017-Dec-12 17:29N 51°03' E 002°17'0 0.0
2017-Dec-12 16:56N 51°03' E 002°17'0 0.0
2017-Dec-12 16:27N 51°03' E 002°17'0 0.0
2017-Dec-12 15:53N 51°03' E 002°17'0 0.0
2017-Dec-12 15:25N 51°03' E 002°17'0 0.4
2017-Dec-12 14:57N 51°03' E 002°18'2 4.5
2017-Dec-12 14:25N 51°03' E 002°21'1 1.4
2017-Dec-12 13:58N 51°04' E 002°21'4 7.4
2017-Dec-12 13:29N 51°04' E 002°15'3 6.9
2017-Dec-12 12:59N 51°03' E 002°10'3 7.0
2017-Dec-12 12:29N 51°03' E 002°04'5 9.8
2017-Dec-12 12:00N 51°02' E 001°57'610.8
2017-Dec-12 11:30N 51°03' E 001°48'511.2
2017-Dec-12 11:00N 51°06' E 001°42'4 7.2
2017-Dec-12 10:31N 51°10' E 001°42'510.0
2017-Dec-12 10:00N 51°14' E 001°47'5 9.9
2017-Dec-12 09:30N 51°17' E 001°52'5 9.9
2017-Dec-12 09:00N 51°22' E 001°56'11 8.3
2017-Dec-12 07:43N 51°22' E 002°13'310.1
2017-Dec-12 07:28N 51°21' E 002°17'5 9.7
2017-Dec-12 06:58N 51°22' E 002°25'510.0
2017-Dec-12 06:29N 51°23' E 002°32'510.1
2017-Dec-12 05:59N 51°23' E 002°40'3 6.6
2017-Dec-12 05:29N 51°22' E 002°45'5 9.8
2017-Dec-12 05:00N 51°23' E 002°53'611.3
2017-Dec-12 04:30N 51°24' E 003°01'611.0
2017-Dec-12 04:00N 51°24' E 003°10'611.7
2017-Dec-12 03:30N 51°24' E 003°20'611.4
2017-Dec-12 02:59N 51°25' E 003°29'511.0
2017-Dec-12 02:30N 51°26' E 003°37'5 9.6
2017-Dec-12 02:00N 51°23' E 003°43'510.0
2017-Dec-12 01:30N 51°20' E 003°49'0 0.2
2017-Dec-12 01:00N 51°20' E 003°49'3 6.8
2017-Dec-12 00:30N 51°16' E 003°50'4 8.9
2017-Dec-12 00:00N 51°12' E 003°48'4 8.8
2017-Dec-11 23:30N 51°08' E 003°46'2 4.9
2017-Dec-11 23:00N 51°06' E 003°44'0 0.0
2017-Dec-11 22:30N 51°06' E 003°44'0 0.0
2017-Dec-11 22:00N 51°06' E 003°44'0 0.0
2017-Dec-11 21:20N 51°06' E 003°44'0 0.0
2017-Dec-11 20:59N 51°06' E 003°44'0 0.0
2017-Dec-11 20:30N 51°06' E 003°44'0 0.0
2017-Dec-11 19:56N 51°06' E 003°44'0 0.0
2017-Dec-11 19:30N 51°06' E 003°44'0 0.0
2017-Dec-11 18:56N 51°06' E 003°44'0 0.0
2017-Dec-11 18:30N 51°06' E 003°44'0 0.0
2017-Dec-11 18:00N 51°06' E 003°44'0 0.0
2017-Dec-11 17:30N 51°06' E 003°44'0 0.0
2017-Dec-11 16:59N 51°06' E 003°44'0 0.0
2017-Dec-11 16:30N 51°06' E 003°44'0 0.0
2017-Dec-11 16:00N 51°06' E 003°44'0 0.0
2017-Dec-11 15:30N 51°06' E 003°44'0 0.0
2017-Dec-11 14:59N 51°06' E 003°44'0 0.0
2017-Dec-11 14:30N 51°06' E 003°44'0 0.0
2017-Dec-11 13:59N 51°06' E 003°44'0 0.0
2017-Dec-11 13:29N 51°06' E 003°44'0 0.0
2017-Dec-11 12:56N 51°06' E 003°44'0 0.0
2017-Dec-11 12:26N 51°06' E 003°44'0 0.0
2017-Dec-11 12:00N 51°06' E 003°44'0 0.0
2017-Dec-11 11:30N 51°06' E 003°44'0 0.0
2017-Dec-11 10:59N 51°06' E 003°44'0 0.0
2017-Dec-11 10:30N 51°06' E 003°44'0 0.0
2017-Dec-11 10:00N 51°06' E 003°44'0 0.0
2017-Dec-11 09:30N 51°06' E 003°44'0 0.0
2017-Dec-11 08:59N 51°06' E 003°44'0 0.0
2017-Dec-11 08:30N 51°06' E 003°44'0 0.0
2017-Dec-11 08:00N 51°06' E 003°44'0 0.0
2017-Dec-11 07:26N 51°06' E 003°44'0 0.0
2017-Dec-11 06:59N 51°06' E 003°44'0 0.0
2017-Dec-11 06:30N 51°06' E 003°44'0 0.0
2017-Dec-11 05:56N 51°06' E 003°44'0 0.0
2017-Dec-11 05:30N 51°06' E 003°44'0 0.0
2017-Dec-11 05:00N 51°06' E 003°44'0 0.0
2017-Dec-11 04:30N 51°06' E 003°44'0 0.0
2017-Dec-11 03:56N 51°06' E 003°44'0 0.0
2017-Dec-11 03:30N 51°06' E 003°44'0 0.0
2017-Dec-11 03:00N 51°06' E 003°44'0 0.0
2017-Dec-11 02:30N 51°06' E 003°44'0 0.0
2017-Dec-11 01:59N 51°06' E 003°44'0 0.0
2017-Dec-11 01:30N 51°06' E 003°44'0 0.0
2017-Dec-11 00:56N 51°06' E 003°44'0 0.0
2017-Dec-11 00:30N 51°06' E 003°44'0 0.0
2017-Dec-11 00:00N 51°06' E 003°44'0 0.0
2017-Dec-10 23:30N 51°06' E 003°44'0 0.0
2017-Dec-10 23:00N 51°06' E 003°44'0 0.0
2017-Dec-10 22:29N 51°06' E 003°44'0 0.0
2017-Dec-10 22:00N 51°06' E 003°44'0 0.0
2017-Dec-10 21:30N 51°06' E 003°44'0 0.0
2017-Dec-10 21:00N 51°06' E 003°44'0 0.0
2017-Dec-10 20:30N 51°06' E 003°44'0 0.0
2017-Dec-10 20:00N 51°06' E 003°44'0 0.0
2017-Dec-10 19:30N 51°06' E 003°44'0 0.0
2017-Dec-10 18:59N 51°06' E 003°44'0 0.0
2017-Dec-10 18:30N 51°06' E 003°44'0 0.0
2017-Dec-10 18:00N 51°06' E 003°44'0 0.0
2017-Dec-10 17:29N 51°06' E 003°44'0 0.0
2017-Dec-10 16:59N 51°06' E 003°44'0 0.0
2017-Dec-10 16:30N 51°06' E 003°44'0 0.0
2017-Dec-10 16:00N 51°06' E 003°44'0 0.0
2017-Dec-10 15:30N 51°06' E 003°44'0 0.0
2017-Dec-10 14:59N 51°06' E 003°44'0 0.0
2017-Dec-10 14:30N 51°06' E 003°44'0 0.0
2017-Dec-10 13:53N 51°06' E 003°44'0 0.0
2017-Dec-10 13:30N 51°06' E 003°44'0 0.0
2017-Dec-10 13:00N 51°06' E 003°44'0 0.0
2017-Dec-10 12:30N 51°06' E 003°44'0 0.0
2017-Dec-10 12:00N 51°06' E 003°44'0 0.0
2017-Dec-10 11:26N 51°06' E 003°44'0 0.0
2017-Dec-10 10:56N 51°06' E 003°44'0 0.0
2017-Dec-10 10:29N 51°06' E 003°44'0 0.0
2017-Dec-10 10:00N 51°06' E 003°44'0 0.0
2017-Dec-10 09:30N 51°06' E 003°44'0 0.0
2017-Dec-10 08:54N 51°06' E 003°44'0 0.0
2017-Dec-10 08:29N 51°06' E 003°44'0 0.0
2017-Dec-10 08:00N 51°06' E 003°44'0 0.0
2017-Dec-10 07:29N 51°06' E 003°44'0 0.0
2017-Dec-10 07:00N 51°06' E 003°44'0 0.0
2017-Dec-10 06:30N 51°06' E 003°44'0 0.0
2017-Dec-10 06:00N 51°06' E 003°44'0 0.0
2017-Dec-10 05:29N 51°06' E 003°44'0 0.0
2017-Dec-10 05:00N 51°06' E 003°44'0 0.0
2017-Dec-10 04:30N 51°06' E 003°44'0 0.0
2017-Dec-10 03:59N 51°06' E 003°44'0 0.0
2017-Dec-10 03:30N 51°06' E 003°44'0 0.0
2017-Dec-10 02:56N 51°06' E 003°44'0 0.0
2017-Dec-10 02:30N 51°06' E 003°44'0 0.2
2017-Dec-10 02:00N 51°06' E 003°44'3 6.2
2017-Dec-10 01:30N 51°08' E 003°47'4 7.9
2017-Dec-10 01:00N 51°12' E 003°48'4 7.7
2017-Dec-10 00:30N 51°16' E 003°50'4 7.1
2017-Dec-10 00:01N 51°19' E 003°49'0 1.0
2017-Dec-09 23:30N 51°20' E 003°49'3 5.8
2017-Dec-09 23:00N 51°22' E 003°45'4 8.2
2017-Dec-09 22:30N 51°25' E 003°42'4 7.3
2017-Dec-09 22:00N 51°26' E 003°36'4 7.8
2017-Dec-09 21:30N 51°25' E 003°30'4 8.6
2017-Dec-09 21:00N 51°24' E 003°23'5 9.4
2017-Dec-09 20:30N 51°24' E 003°16'510.3
2017-Dec-09 20:00N 51°24' E 003°08'611.0
2017-Dec-09 19:29N 51°24' E 002°59'611.6
2017-Dec-09 18:57N 51°24' E 002°49'3 6.8
2017-Dec-09 18:27N 51°22' E 002°44'3 6.2
2017-Dec-09 17:56N 51°22' E 002°39'3 8.1
2017-Dec-09 17:30N 51°23' E 002°33'1 1.7
2017-Dec-09 16:59N 51°22' E 002°33'3 5.7
2017-Dec-09 16:29N 51°21' E 002°28'3 6.4
2017-Dec-09 16:00N 51°20' E 002°24'610.9
2017-Dec-09 15:30N 51°17' E 002°16'611.5
2017-Dec-09 14:59N 51°14' E 002°08'511.2
2017-Dec-09 14:30N 51°11' E 002°01'510.6
2017-Dec-09 14:01N 51°09' E 001°53'5 9.9
2017-Dec-09 13:30N 51°06' E 001°47'5 9.4
2017-Dec-09 13:01N 51°02' E 001°42'4 8.9
2017-Dec-09 12:31N 50°59' E 001°37'4 8.5
2017-Dec-09 12:00N 50°56' E 001°32'57 6.6
2017-Dec-09 03:24N 50°40' E 000°06'6 9.9
2017-Dec-09 02:50N 50°46' E 000°04'2 4.7
2017-Dec-09 02:29N 50°47' E 000°03'0 0.0
2017-Dec-09 01:59N 50°47' E 000°03'0 0.0
2017-Dec-09 01:29N 50°47' E 000°03'0 0.0
2017-Dec-09 00:56N 50°47' E 000°03'0 0.0
2017-Dec-09 00:26N 50°47' E 000°03'0 0.0
2017-Dec-08 23:59N 50°47' E 000°03'0 0.0
2017-Dec-08 23:29N 50°47' E 000°03'0 0.0
2017-Dec-08 22:59N 50°47' E 000°03'0 0.0
2017-Dec-08 22:29N 50°47' E 000°03'0 0.0
2017-Dec-08 21:59N 50°47' E 000°03'0 0.0
2017-Dec-08 21:29N 50°47' E 000°03'0 0.0
2017-Dec-08 20:59N 50°47' E 000°03'0 0.0
2017-Dec-08 20:29N 50°47' E 000°03'0 0.0
2017-Dec-08 19:59N 50°47' E 000°03'0 0.0
2017-Dec-08 19:29N 50°47' E 000°03'0 0.0
2017-Dec-08 18:59N 50°47' E 000°03'0 0.0
2017-Dec-08 18:29N 50°47' E 000°03'0 0.0
2017-Dec-08 17:59N 50°47' E 000°03'0 0.0
2017-Dec-08 17:29N 50°47' E 000°03'0 0.0
2017-Dec-08 16:53N 50°47' E 000°03'0 0.0
2017-Dec-08 16:29N 50°47' E 000°03'0 0.0
2017-Dec-08 15:53N 50°47' E 000°03'0 0.0
2017-Dec-08 15:29N 50°47' E 000°03'0 0.0
2017-Dec-08 14:59N 50°47' E 000°03'0 0.0
2017-Dec-08 14:20N 50°47' E 000°03'0 0.0
2017-Dec-08 13:53N 50°47' E 000°03'0 0.0
2017-Dec-08 13:29N 50°47' E 000°03'0 0.0
2017-Dec-08 12:59N 50°47' E 000°03'0 0.0
2017-Dec-08 12:29N 50°47' E 000°03'0 0.0
2017-Dec-08 11:59N 50°47' E 000°03'0 0.0
2017-Dec-08 11:29N 50°47' E 000°03'0 0.0
2017-Dec-08 10:47N 50°47' E 000°03'0 0.0
2017-Dec-08 10:29N 50°47' E 000°03'0 0.0
2017-Dec-08 09:59N 50°47' E 000°03'0 0.0
2017-Dec-08 09:29N 50°47' E 000°03'0 0.0
2017-Dec-08 08:59N 50°47' E 000°03'0 0.0
2017-Dec-08 08:29N 50°47' E 000°03'0 0.0
2017-Dec-08 07:59N 50°47' E 000°03'0 0.0
2017-Dec-08 07:26N 50°47' E 000°03'0 0.0
2017-Dec-08 07:00N 50°47' E 000°03'0 0.0
2017-Dec-08 06:30N 50°47' E 000°03'0 0.0
2017-Dec-08 06:00N 50°47' E 000°03'0 0.0
2017-Dec-08 05:30N 50°47' E 000°03'0 0.0
2017-Dec-08 04:58N 50°47' E 000°03'0 0.0
2017-Dec-08 04:30N 50°47' E 000°03'0 0.0
2017-Dec-08 04:00N 50°47' E 000°03'0 0.0
2017-Dec-08 03:30N 50°47' E 000°03'0 0.0
2017-Dec-08 03:00N 50°47' E 000°03'0 0.0
2017-Dec-08 02:30N 50°47' E 000°03'0 0.0
2017-Dec-08 02:00N 50°47' E 000°03'0 0.0
2017-Dec-08 01:30N 50°47' E 000°03'0 0.0
2017-Dec-08 01:00N 50°47' E 000°03'0 0.0
2017-Dec-08 00:30N 50°47' E 000°03'0 0.0
2017-Dec-08 00:00N 50°47' E 000°03'0 0.0
2017-Dec-07 23:30N 50°47' E 000°03'0 0.0
2017-Dec-07 23:00N 50°47' E 000°03'0 0.0
2017-Dec-07 22:30N 50°47' E 000°03'0 0.0
2017-Dec-07 21:58N 50°47' E 000°03'0 0.0
2017-Dec-07 21:30N 50°47' E 000°03'0 0.0
2017-Dec-07 21:00N 50°47' E 000°03'1 3.0
2017-Dec-07 20:30N 50°46' E 000°03'2 3.0
2017-Dec-07 20:00N 50°45' E 000°01'2 4.3
2017-Dec-07 19:30N 50°44' W 000°03'3 5.1
2017-Dec-07 19:00N 50°42' W 000°00'3 5.3
2017-Dec-07 18:30N 50°40' E 000°02'3 5.3
2017-Dec-07 18:00N 50°38' E 000°05'1 2.5
2017-Dec-07 17:30N 50°37' E 000°06'3 5.8
2017-Dec-07 17:00N 50°40' E 000°05'3 5.7
2017-Dec-07 16:30N 50°43' E 000°03'3 5.5
2017-Dec-07 16:00N 50°45' E 000°02'2 4.2
2017-Dec-07 15:30N 50°44' E 000°04'3 5.7
2017-Dec-07 15:00N 50°42' E 000°07'2 4.6
2017-Dec-07 14:30N 50°40' E 000°10'1 2.9
2017-Dec-07 14:00N 50°41' E 000°12'1 1.9
2017-Dec-07 13:30N 50°41' E 000°13'1 1.5
2017-Dec-07 13:00N 50°42' E 000°15'1 1.2
2017-Dec-07 12:30N 50°42' E 000°15'2 4.2
2017-Dec-07 12:01N 50°41' E 000°12'4 8.5
2017-Dec-07 11:30N 50°40' E 000°06'4 8.3
2017-Dec-07 11:00N 50°38' W 000°00'4 7.6
2017-Dec-07 10:31N 50°37' W 000°05'0 0.2
2017-Dec-07 10:00N 50°37' W 000°06'0 0.4
2017-Dec-07 09:30N 50°37' W 000°05'0 0.7
2017-Dec-07 09:00N 50°37' W 000°05'1 1.3
2017-Dec-07 08:30N 50°38' W 000°04'1 1.8
2017-Dec-07 08:00N 50°39' W 000°03'1 2.0
2017-Dec-07 07:30N 50°39' W 000°02'1 2.2
2017-Dec-07 07:00N 50°40' W 000°02'1 2.7
2017-Dec-07 06:30N 50°41' W 000°00'1 2.8
2017-Dec-07 06:00N 50°43' E 000°01'1 2.4
2017-Dec-07 05:30N 50°44' E 000°02'1 1.7
2017-Dec-07 05:00N 50°43' E 000°03'3 6.3
2017-Dec-07 04:30N 50°40' E 000°02'2 4.8
2017-Dec-07 04:00N 50°38' E 000°01'2 4.4
2017-Dec-07 03:30N 50°37' W 000°03'2 4.6
2017-Dec-07 03:00N 50°37' W 000°06'2 4.5
2017-Dec-07 02:30N 50°36' W 000°10'2 3.2
2017-Dec-07 02:00N 50°36' W 000°12'1 2.8
2017-Dec-07 01:30N 50°37' W 000°11'1 2.5
2017-Dec-07 01:00N 50°38' W 000°09'1 2.3
2017-Dec-07 00:30N 50°38' W 000°07'1 1.7
2017-Dec-07 00:00N 50°39' W 000°06'1 1.5
2017-Dec-06 23:30N 50°39' W 000°06'1 1.5
2017-Dec-06 23:00N 50°40' W 000°05'1 1.7
2017-Dec-06 22:30N 50°40' W 000°04'1 1.6
2017-Dec-06 22:00N 50°41' W 000°03'1 1.8
2017-Dec-06 21:30N 50°42' W 000°02'1 2.5
2017-Dec-06 21:00N 50°43' W 000°01'  
Track history (hours):
 
Tides and Currents Weather Stations Pressure Air Temp Water Temp Dewpoint Dewpoint Depression Visibility Wind Speed Wind Dir Waves Ship Positions

#dbistima

Last reported at 2017-Dec-15 02:31 UTC. Time now 2017-Dec-15 11:58 UTC.
Position N 53°29' E 005°04'.

MMSI: 304010972.

Date/timePositionNaut miles runAvg speedWind from/ knotsBaromVisibWave heightAir tempDewpointWater temp
2017-Dec-15 02:31N 53°29' E 005°04'15310.3
2017-Dec-14 11:40N 51°32' E 002°21'412.0
2017-Dec-14 11:18N 51°29' E 002°16'311.6
2017-Dec-14 11:01N 51°26' E 002°14'612.0
2017-Dec-14 10:30N 51°20' E 002°09'611.9
2017-Dec-14 10:01N 51°15' E 002°05'611.9
2017-Dec-14 09:30N 51°11' E 001°58'612.1
2017-Dec-14 09:00N 51°07' E 001°50'4 9.0
2017-Dec-14 08:30N 51°04' E 001°46'3 5.9
2017-Dec-14 08:00N 51°03' E 001°50'3 5.6
2017-Dec-14 07:30N 51°02' E 001°55'3 6.2
2017-Dec-14 07:00N 51°03' E 001°60'4 7.3
2017-Dec-14 06:30N 51°03' E 002°05'4 7.8
2017-Dec-14 06:00N 51°03' E 002°12'4 8.4
2017-Dec-14 05:28N 51°04' E 002°19'1 2.7
2017-Dec-14 05:00N 51°03' E 002°20'1 1.1
2017-Dec-14 04:30N 51°03' E 002°20'2 2.8
2017-Dec-14 03:57N 51°03' E 002°17'0 0.0
2017-Dec-14 02:22N 51°03' E 002°17'0 0.0
2017-Dec-14 01:52N 51°03' E 002°17'0 0.0
2017-Dec-14 01:22N 51°03' E 002°17'0 0.0
2017-Dec-14 00:16N 51°03' E 002°17'0 0.0
2017-Dec-13 23:58N 51°03' E 002°17'0 0.0
2017-Dec-13 22:52N 51°03' E 002°17'0 0.0
2017-Dec-13 22:28N 51°03' E 002°17'0 0.0
2017-Dec-13 21:55N 51°03' E 002°17'0 0.0
2017-Dec-13 20:58N 51°03' E 002°17'0 0.0
2017-Dec-13 20:28N 51°03' E 002°17'0 0.0
2017-Dec-13 19:40N 51°03' E 002°17'0 0.0
2017-Dec-13 18:40N 51°03' E 002°17'0 0.0
2017-Dec-13 18:28N 51°03' E 002°17'0 0.0
2017-Dec-13 17:52N 51°03' E 002°17'0 0.0
2017-Dec-13 17:28N 51°03' E 002°17'0 0.0
2017-Dec-13 16:58N 51°03' E 002°17'0 0.0
2017-Dec-13 16:28N 51°03' E 002°17'0 0.0
2017-Dec-13 15:55N 51°03' E 002°17'0 0.0
2017-Dec-13 14:58N 51°03' E 002°17'0 0.0
2017-Dec-13 14:01N 51°03' E 002°17'0 0.0
2017-Dec-13 13:43N 51°03' E 002°17'0 0.0
2017-Dec-13 13:22N 51°03' E 002°17'0 0.0
2017-Dec-13 12:40N 51°03' E 002°17'0 0.0
2017-Dec-13 12:25N 51°03' E 002°17'0 0.0
2017-Dec-13 11:52N 51°03' E 002°17'0 0.0
2017-Dec-13 11:04N 51°03' E 002°17'0 0.0
2017-Dec-13 10:58N 51°03' E 002°17'0 0.0
2017-Dec-13 10:22N 51°03' E 002°17'0 0.0
2017-Dec-13 09:43N 51°03' E 002°17'0 0.0
2017-Dec-13 09:29N 51°03' E 002°17'0 0.0
2017-Dec-13 08:58N 51°03' E 002°17'0 0.0
2017-Dec-13 08:30N 51°03' E 002°17'0 0.0
2017-Dec-13 07:59N 51°03' E 002°17'0 0.0
2017-Dec-13 07:30N 51°03' E 002°17'0 0.0
2017-Dec-13 06:50N 51°03' E 002°17'0 0.0
2017-Dec-13 06:29N 51°03' E 002°17'0 0.0
2017-Dec-13 05:57N 51°03' E 002°17'0 0.0
2017-Dec-13 04:50N 51°03' E 002°17'0 0.0
2017-Dec-13 04:08N 51°03' E 002°17'0 0.0
2017-Dec-13 03:54N 51°03' E 002°17'0 0.0
2017-Dec-13 03:30N 51°03' E 002°17'0 0.0
2017-Dec-13 02:59N 51°03' E 002°17'0 0.0
2017-Dec-13 02:28N 51°03' E 002°17'0 0.0
2017-Dec-13 01:59N 51°03' E 002°17'0 0.0
2017-Dec-13 01:26N 51°03' E 002°17'0 0.0
2017-Dec-13 00:59N 51°03' E 002°17'0 0.0
2017-Dec-13 00:30N 51°03' E 002°17'0 0.0
2017-Dec-12 23:59N 51°03' E 002°17'0 0.0
2017-Dec-12 23:26N 51°03' E 002°17'0 0.0
2017-Dec-12 23:00N 51°03' E 002°17'0 0.0
2017-Dec-12 22:20N 51°03' E 002°17'0 0.0
2017-Dec-12 21:47N 51°03' E 002°17'0 0.0
2017-Dec-12 21:27N 51°03' E 002°17'0 0.0
2017-Dec-12 21:00N 51°03' E 002°17'0 0.0
2017-Dec-12 20:25N 51°03' E 002°17'0 0.0
2017-Dec-12 19:51N 51°03' E 002°17'0 0.0
2017-Dec-12 19:24N 51°03' E 002°17'0 0.0
2017-Dec-12 18:55N 51°03' E 002°17'0 0.0
2017-Dec-12 18:30N 51°03' E 002°17'0 0.0
2017-Dec-12 17:51N 51°03' E 002°17'0 0.0
2017-Dec-12 17:29N 51°03' E 002°17'0 0.0
2017-Dec-12 16:56N 51°03' E 002°17'0 0.0
2017-Dec-12 16:27N 51°03' E 002°17'0 0.0
2017-Dec-12 15:53N 51°03' E 002°17'0 0.0
2017-Dec-12 15:25N 51°03' E 002°17'0 0.4
2017-Dec-12 14:57N 51°03' E 002°18'2 4.5
2017-Dec-12 14:25N 51°03' E 002°21'1 1.4
2017-Dec-12 13:58N 51°04' E 002°21'4 7.4
2017-Dec-12 13:29N 51°04' E 002°15'3 6.9
2017-Dec-12 12:59N 51°03' E 002°10'3 7.0
2017-Dec-12 12:29N 51°03' E 002°04'5 9.8
2017-Dec-12 12:00N 51°02' E 001°57'610.8
2017-Dec-12 11:30N 51°03' E 001°48'511.2
2017-Dec-12 11:00N 51°06' E 001°42'4 7.2
2017-Dec-12 10:31N 51°10' E 001°42'510.0
2017-Dec-12 10:00N 51°14' E 001°47'5 9.9
2017-Dec-12 09:30N 51°17' E 001°52'5 9.9
2017-Dec-12 09:00N 51°22' E 001°56'11 8.3
2017-Dec-12 07:43N 51°22' E 002°13'310.1
2017-Dec-12 07:28N 51°21' E 002°17'5 9.7
2017-Dec-12 06:58N 51°22' E 002°25'510.0
2017-Dec-12 06:29N 51°23' E 002°32'510.1
2017-Dec-12 05:59N 51°23' E 002°40'3 6.6
2017-Dec-12 05:29N 51°22' E 002°45'5 9.8
2017-Dec-12 05:00N 51°23' E 002°53'611.3
2017-Dec-12 04:30N 51°24' E 003°01'611.0
2017-Dec-12 04:00N 51°24' E 003°10'611.7
2017-Dec-12 03:30N 51°24' E 003°20'611.4
2017-Dec-12 02:59N 51°25' E 003°29'511.0
2017-Dec-12 02:30N 51°26' E 003°37'5 9.6
2017-Dec-12 02:00N 51°23' E 003°43'510.0
2017-Dec-12 01:30N 51°20' E 003°49'0 0.2
2017-Dec-12 01:00N 51°20' E 003°49'3 6.8
2017-Dec-12 00:30N 51°16' E 003°50'4 8.9
2017-Dec-12 00:00N 51°12' E 003°48'4 8.8
2017-Dec-11 23:30N 51°08' E 003°46'2 4.9
2017-Dec-11 23:00N 51°06' E 003°44'0 0.0
2017-Dec-11 22:30N 51°06' E 003°44'0 0.0
2017-Dec-11 22:00N 51°06' E 003°44'0 0.0
2017-Dec-11 21:20N 51°06' E 003°44'0 0.0
2017-Dec-11 20:59N 51°06' E 003°44'0 0.0
2017-Dec-11 20:30N 51°06' E 003°44'0 0.0
2017-Dec-11 19:56N 51°06' E 003°44'0 0.0
2017-Dec-11 19:30N 51°06' E 003°44'0 0.0
2017-Dec-11 18:56N 51°06' E 003°44'0 0.0
2017-Dec-11 18:30N 51°06' E 003°44'0 0.0
2017-Dec-11 18:00N 51°06' E 003°44'0 0.0
2017-Dec-11 17:30N 51°06' E 003°44'0 0.0
2017-Dec-11 16:59N 51°06' E 003°44'0 0.0
2017-Dec-11 16:30N 51°06' E 003°44'0 0.0
2017-Dec-11 16:00N 51°06' E 003°44'0 0.0
2017-Dec-11 15:30N 51°06' E 003°44'0 0.0
2017-Dec-11 14:59N 51°06' E 003°44'0 0.0
2017-Dec-11 14:30N 51°06' E 003°44'0 0.0
2017-Dec-11 13:59N 51°06' E 003°44'0 0.0
2017-Dec-11 13:29N 51°06' E 003°44'0 0.0
2017-Dec-11 12:56N 51°06' E 003°44'0 0.0
2017-Dec-11 12:26N 51°06' E 003°44'0 0.0
2017-Dec-11 12:00N 51°06' E 003°44'0 0.0
2017-Dec-11 11:30N 51°06' E 003°44'0 0.0
2017-Dec-11 10:59N 51°06' E 003°44'0 0.0
2017-Dec-11 10:30N 51°06' E 003°44'0 0.0
2017-Dec-11 10:00N 51°06' E 003°44'0 0.0
2017-Dec-11 09:30N 51°06' E 003°44'0 0.0
2017-Dec-11 08:59N 51°06' E 003°44'0 0.0
2017-Dec-11 08:30N 51°06' E 003°44'0 0.0
2017-Dec-11 08:00N 51°06' E 003°44'0 0.0
2017-Dec-11 07:26N 51°06' E 003°44'0 0.0
2017-Dec-11 06:59N 51°06' E 003°44'0 0.0
2017-Dec-11 06:30N 51°06' E 003°44'0 0.0
2017-Dec-11 05:56N 51°06' E 003°44'0 0.0
2017-Dec-11 05:30N 51°06' E 003°44'0 0.0
2017-Dec-11 05:00N 51°06' E 003°44'0 0.0
2017-Dec-11 04:30N 51°06' E 003°44'0 0.0
2017-Dec-11 03:56N 51°06' E 003°44'0 0.0
2017-Dec-11 03:30N 51°06' E 003°44'0 0.0
2017-Dec-11 03:00N 51°06' E 003°44'0 0.0
2017-Dec-11 02:30N 51°06' E 003°44'0 0.0
2017-Dec-11 01:59N 51°06' E 003°44'0 0.0
2017-Dec-11 01:30N 51°06' E 003°44'0 0.0
2017-Dec-11 00:56N 51°06' E 003°44'0 0.0
2017-Dec-11 00:30N 51°06' E 003°44'0 0.0
2017-Dec-11 00:00N 51°06' E 003°44'0 0.0
2017-Dec-10 23:30N 51°06' E 003°44'0 0.0
2017-Dec-10 23:00N 51°06' E 003°44'0 0.0
2017-Dec-10 22:29N 51°06' E 003°44'0 0.0
2017-Dec-10 22:00N 51°06' E 003°44'0 0.0
2017-Dec-10 21:30N 51°06' E 003°44'0 0.0
2017-Dec-10 21:00N 51°06' E 003°44'0 0.0
2017-Dec-10 20:30N 51°06' E 003°44'0 0.0
2017-Dec-10 20:00N 51°06' E 003°44'0 0.0
2017-Dec-10 19:30N 51°06' E 003°44'0 0.0
2017-Dec-10 18:59N 51°06' E 003°44'0 0.0
2017-Dec-10 18:30N 51°06' E 003°44'0 0.0
2017-Dec-10 18:00N 51°06' E 003°44'0 0.0
2017-Dec-10 17:29N 51°06' E 003°44'0 0.0
2017-Dec-10 16:59N 51°06' E 003°44'0 0.0
2017-Dec-10 16:30N 51°06' E 003°44'0 0.0
2017-Dec-10 16:00N 51°06' E 003°44'0 0.0
2017-Dec-10 15:30N 51°06' E 003°44'0 0.0
2017-Dec-10 14:59N 51°06' E 003°44'0 0.0
2017-Dec-10 14:30N 51°06' E 003°44'0 0.0
2017-Dec-10 13:53N 51°06' E 003°44'0 0.0
2017-Dec-10 13:30N 51°06' E 003°44'0 0.0
2017-Dec-10 13:00N 51°06' E 003°44'0 0.0
2017-Dec-10 12:30N 51°06' E 003°44'0 0.0
2017-Dec-10 12:00N 51°06' E 003°44'0 0.0
2017-Dec-10 11:26N 51°06' E 003°44'0 0.0
2017-Dec-10 10:56N 51°06' E 003°44'0 0.0
2017-Dec-10 10:29N 51°06' E 003°44'0 0.0
2017-Dec-10 10:00N 51°06' E 003°44'0 0.0
2017-Dec-10 09:30N 51°06' E 003°44'0 0.0
2017-Dec-10 08:54N 51°06' E 003°44'0 0.0
2017-Dec-10 08:29N 51°06' E 003°44'0 0.0
2017-Dec-10 08:00N 51°06' E 003°44'0 0.0
2017-Dec-10 07:29N 51°06' E 003°44'0 0.0
2017-Dec-10 07:00N 51°06' E 003°44'0 0.0
2017-Dec-10 06:30N 51°06' E 003°44'0 0.0
2017-Dec-10 06:00N 51°06' E 003°44'0 0.0
2017-Dec-10 05:29N 51°06' E 003°44'0 0.0
2017-Dec-10 05:00N 51°06' E 003°44'0 0.0
2017-Dec-10 04:30N 51°06' E 003°44'0 0.0
2017-Dec-10 03:59N 51°06' E 003°44'0 0.0
2017-Dec-10 03:30N 51°06' E 003°44'0 0.0
2017-Dec-10 02:56N 51°06' E 003°44'0 0.0
2017-Dec-10 02:30N 51°06' E 003°44'0 0.2
2017-Dec-10 02:00N 51°06' E 003°44'3 6.2
2017-Dec-10 01:30N 51°08' E 003°47'4 7.9
2017-Dec-10 01:00N 51°12' E 003°48'4 7.7
2017-Dec-10 00:30N 51°16' E 003°50'4 7.1
2017-Dec-10 00:01N 51°19' E 003°49'0 1.0
2017-Dec-09 23:30N 51°20' E 003°49'3 5.8
2017-Dec-09 23:00N 51°22' E 003°45'4 8.2
2017-Dec-09 22:30N 51°25' E 003°42'4 7.3
2017-Dec-09 22:00N 51°26' E 003°36'4 7.8
2017-Dec-09 21:30N 51°25' E 003°30'4 8.6
2017-Dec-09 21:00N 51°24' E 003°23'5 9.4
2017-Dec-09 20:30N 51°24' E 003°16'510.3
2017-Dec-09 20:00N 51°24' E 003°08'611.0
2017-Dec-09 19:29N 51°24' E 002°59'611.6
2017-Dec-09 18:57N 51°24' E 002°49'3 6.8
2017-Dec-09 18:27N 51°22' E 002°44'3 6.2
2017-Dec-09 17:56N 51°22' E 002°39'3 8.1
2017-Dec-09 17:30N 51°23' E 002°33'1 1.7
2017-Dec-09 16:59N 51°22' E 002°33'3 5.7
2017-Dec-09 16:29N 51°21' E 002°28'3 6.4
2017-Dec-09 16:00N 51°20' E 002°24'610.9
2017-Dec-09 15:30N 51°17' E 002°16'611.5
2017-Dec-09 14:59N 51°14' E 002°08'511.2
2017-Dec-09 14:30N 51°11' E 002°01'510.6
2017-Dec-09 14:01N 51°09' E 001°53'5 9.9
2017-Dec-09 13:30N 51°06' E 001°47'5 9.4
2017-Dec-09 13:01N 51°02' E 001°42'4 8.9
2017-Dec-09 12:31N 50°59' E 001°37'4 8.5
2017-Dec-09 12:00N 50°56' E 001°32'57 6.6
2017-Dec-09 03:24N 50°40' E 000°06'6 9.9
2017-Dec-09 02:50N 50°46' E 000°04'2 4.7
2017-Dec-09 02:29N 50°47' E 000°03'0 0.0
2017-Dec-09 01:59N 50°47' E 000°03'0 0.0
2017-Dec-09 01:29N 50°47' E 000°03'0 0.0
2017-Dec-09 00:56N 50°47' E 000°03'0 0.0
2017-Dec-09 00:26N 50°47' E 000°03'0 0.0
2017-Dec-08 23:59N 50°47' E 000°03'0 0.0
2017-Dec-08 23:29N 50°47' E 000°03'0 0.0
2017-Dec-08 22:59N 50°47' E 000°03'0 0.0
2017-Dec-08 22:29N 50°47' E 000°03'0 0.0
2017-Dec-08 21:59N 50°47' E 000°03'0 0.0
2017-Dec-08 21:29N 50°47' E 000°03'0 0.0
2017-Dec-08 20:59N 50°47' E 000°03'0 0.0
2017-Dec-08 20:29N 50°47' E 000°03'0 0.0
2017-Dec-08 19:59N 50°47' E 000°03'0 0.0
2017-Dec-08 19:29N 50°47' E 000°03'0 0.0
2017-Dec-08 18:59N 50°47' E 000°03'0 0.0
2017-Dec-08 18:29N 50°47' E 000°03'0 0.0
2017-Dec-08 17:59N 50°47' E 000°03'0 0.0
2017-Dec-08 17:29N 50°47' E 000°03'0 0.0
2017-Dec-08 16:53N 50°47' E 000°03'0 0.0
2017-Dec-08 16:29N 50°47' E 000°03'0 0.0
2017-Dec-08 15:53N 50°47' E 000°03'0 0.0
2017-Dec-08 15:29N 50°47' E 000°03'0 0.0
2017-Dec-08 14:59N 50°47' E 000°03'0 0.0
2017-Dec-08 14:20N 50°47' E 000°03'0 0.0
2017-Dec-08 13:53N 50°47' E 000°03'0 0.0
2017-Dec-08 13:29N 50°47' E 000°03'0 0.0
2017-Dec-08 12:59N 50°47' E 000°03'0 0.0
2017-Dec-08 12:29N 50°47' E 000°03'0 0.0
2017-Dec-08 11:59N 50°47' E 000°03'0 0.0
2017-Dec-08 11:29N 50°47' E 000°03'0 0.0
2017-Dec-08 10:47N 50°47' E 000°03'0 0.0
2017-Dec-08 10:29N 50°47' E 000°03'0 0.0
2017-Dec-08 09:59N 50°47' E 000°03'0 0.0
2017-Dec-08 09:29N 50°47' E 000°03'0 0.0
2017-Dec-08 08:59N 50°47' E 000°03'0 0.0
2017-Dec-08 08:29N 50°47' E 000°03'0 0.0
2017-Dec-08 07:59N 50°47' E 000°03'0 0.0
2017-Dec-08 07:26N 50°47' E 000°03'0 0.0
2017-Dec-08 07:00N 50°47' E 000°03'0 0.0
2017-Dec-08 06:30N 50°47' E 000°03'0 0.0
2017-Dec-08 06:00N 50°47' E 000°03'0 0.0
2017-Dec-08 05:30N 50°47' E 000°03'0 0.0
2017-Dec-08 04:58N 50°47' E 000°03'0 0.0
2017-Dec-08 04:30N 50°47' E 000°03'0 0.0
2017-Dec-08 04:00N 50°47' E 000°03'0 0.0
2017-Dec-08 03:30N 50°47' E 000°03'0 0.0
2017-Dec-08 03:00N 50°47' E 000°03'0 0.0
2017-Dec-08 02:30N 50°47' E 000°03'0 0.0
2017-Dec-08 02:00N 50°47' E 000°03'0 0.0
2017-Dec-08 01:30N 50°47' E 000°03'0 0.0
2017-Dec-08 01:00N 50°47' E 000°03'0 0.0
2017-Dec-08 00:30N 50°47' E 000°03'0 0.0
2017-Dec-08 00:00N 50°47' E 000°03'0 0.0
2017-Dec-07 23:30N 50°47' E 000°03'0 0.0
2017-Dec-07 23:00N 50°47' E 000°03'0 0.0
2017-Dec-07 22:30N 50°47' E 000°03'0 0.0
2017-Dec-07 21:58N 50°47' E 000°03'0 0.0
2017-Dec-07 21:30N 50°47' E 000°03'0 0.0
2017-Dec-07 21:00N 50°47' E 000°03'1 3.0
2017-Dec-07 20:30N 50°46' E 000°03'2 3.0
2017-Dec-07 20:00N 50°45' E 000°01'2 4.3
2017-Dec-07 19:30N 50°44' W 000°03'3 5.1
2017-Dec-07 19:00N 50°42' W 000°00'3 5.3
2017-Dec-07 18:30N 50°40' E 000°02'3 5.3
2017-Dec-07 18:00N 50°38' E 000°05'1 2.5
2017-Dec-07 17:30N 50°37' E 000°06'3 5.8
2017-Dec-07 17:00N 50°40' E 000°05'3 5.7
2017-Dec-07 16:30N 50°43' E 000°03'3 5.5
2017-Dec-07 16:00N 50°45' E 000°02'2 4.2
2017-Dec-07 15:30N 50°44' E 000°04'3 5.7
2017-Dec-07 15:00N 50°42' E 000°07'2 4.6
2017-Dec-07 14:30N 50°40' E 000°10'1 2.9
2017-Dec-07 14:00N 50°41' E 000°12'1 1.9
2017-Dec-07 13:30N 50°41' E 000°13'1 1.5
2017-Dec-07 13:00N 50°42' E 000°15'1 1.2
2017-Dec-07 12:30N 50°42' E 000°15'2 4.2
2017-Dec-07 12:01N 50°41' E 000°12'4 8.5
2017-Dec-07 11:30N 50°40' E 000°06'4 8.3
2017-Dec-07 11:00N 50°38' W 000°00'4 7.6
2017-Dec-07 10:31N 50°37' W 000°05'0 0.2
2017-Dec-07 10:00N 50°37' W 000°06'0 0.4
2017-Dec-07 09:30N 50°37' W 000°05'0 0.7
2017-Dec-07 09:00N 50°37' W 000°05'1 1.3
2017-Dec-07 08:30N 50°38' W 000°04'1 1.8
2017-Dec-07 08:00N 50°39' W 000°03'1 2.0
2017-Dec-07 07:30N 50°39' W 000°02'1 2.2
2017-Dec-07 07:00N 50°40' W 000°02'1 2.7
2017-Dec-07 06:30N 50°41' W 000°00'1 2.8
2017-Dec-07 06:00N 50°43' E 000°01'1 2.4
2017-Dec-07 05:30N 50°44' E 000°02'1 1.7
2017-Dec-07 05:00N 50°43' E 000°03'3 6.3
2017-Dec-07 04:30N 50°40' E 000°02'2 4.8
2017-Dec-07 04:00N 50°38' E 000°01'2 4.4
2017-Dec-07 03:30N 50°37' W 000°03'2 4.6
2017-Dec-07 03:00N 50°37' W 000°06'2 4.5
2017-Dec-07 02:30N 50°36' W 000°10'2 3.2
2017-Dec-07 02:00N 50°36' W 000°12'1 2.8
2017-Dec-07 01:30N 50°37' W 000°11'1 2.5
2017-Dec-07 01:00N 50°38' W 000°09'1 2.3
2017-Dec-07 00:30N 50°38' W 000°07'1 1.7
2017-Dec-07 00:00N 50°39' W 000°06'1 1.5
2017-Dec-06 23:30N 50°39' W 000°06'1 1.5
2017-Dec-06 23:00N 50°40' W 000°05'1 1.7
2017-Dec-06 22:30N 50°40' W 000°04'1 1.6
2017-Dec-06 22:00N 50°41' W 000°03'1 1.8
2017-Dec-06 21:30N 50°42' W 000°02'1 2.5
2017-Dec-06 21:00N 50°43' W 000°01'  

Dump ship's entire track history